createdAt,value
2022-12-03T00:00:57.693Z,27.48
2022-12-03T00:01:59.182Z,32.40
2022-12-03T00:03:01.179Z,30.08
2022-12-03T00:04:03.077Z,43.28
2022-12-03T00:05:05.328Z,40.10
2022-12-03T00:06:07.200Z,35.05
2022-12-03T00:07:08.700Z,33.28
2022-12-03T00:08:10.294Z,36.53
2022-12-03T00:09:13.203Z,43.45
2022-12-03T00:10:14.718Z,34.95
2022-12-03T00:11:16.230Z,60.30
2022-12-03T00:12:17.739Z,50.00
2022-12-03T00:13:19.288Z,50.83
2022-12-03T00:14:20.910Z,42.05
2022-12-03T00:15:22.484Z,46.63
2022-12-03T00:16:24.018Z,39.97
2022-12-03T00:17:25.592Z,39.42
2022-12-03T00:18:27.074Z,29.63
2022-12-03T00:19:28.630Z,28.13
2022-12-03T00:20:30.145Z,26.10
2022-12-03T00:21:31.619Z,25.63
2022-12-03T00:22:33.201Z,25.05
2022-12-03T00:23:38.610Z,22.40
2022-12-03T00:24:44.715Z,22.33
2022-12-03T00:25:46.237Z,24.67
2022-12-03T00:26:47.776Z,24.40
2022-12-03T00:27:49.340Z,25.02
2022-12-03T00:28:50.904Z,23.90
2022-12-03T00:29:52.439Z,22.27
2022-12-03T00:30:54.050Z,24.75
2022-12-03T00:31:55.668Z,26.52
2022-12-03T00:32:57.187Z,29.40
2022-12-03T00:33:58.704Z,23.98
2022-12-03T00:35:00.265Z,22.83
2022-12-03T00:36:01.860Z,22.95
2022-12-03T00:37:03.441Z,25.15
2022-12-03T00:38:04.958Z,21.65
2022-12-03T00:39:06.454Z,20.13
2022-12-03T00:40:11.367Z,21.95
2022-12-03T00:41:13.008Z,19.23
2022-12-03T00:42:14.594Z,20.95
2022-12-03T00:43:16.153Z,22.42
2022-12-03T00:44:17.673Z,22.23
2022-12-03T00:45:19.205Z,19.80
2022-12-03T00:46:21.800Z,19.02
2022-12-03T00:47:23.541Z,17.20
2022-12-03T00:48:25.069Z,17.83
2022-12-03T00:49:26.567Z,17.45
2022-12-03T00:50:28.106Z,17.48
2022-12-03T00:51:29.655Z,18.83
2022-12-03T00:52:31.202Z,16.67
2022-12-03T00:53:32.677Z,17.10
2022-12-03T00:55:12.529Z,19.45
2022-12-03T00:56:15.427Z,18.35
2022-12-03T00:57:16.952Z,17.85
2022-12-03T00:58:18.525Z,19.30
2022-12-03T00:59:20.713Z,27.45
2022-12-03T01:00:22.563Z,19.58
2022-12-03T01:01:24.214Z,20.20
2022-12-03T01:02:25.808Z,19.23
2022-12-03T01:03:27.530Z,20.23
2022-12-03T01:04:29.555Z,21.42
2022-12-03T01:05:31.092Z,20.52
2022-12-03T01:06:32.594Z,19.70
2022-12-03T01:07:34.190Z,17.55
2022-12-03T01:08:35.748Z,18.08
2022-12-03T01:09:37.276Z,25.05
2022-12-03T01:10:38.795Z,24.23
2022-12-03T01:11:41.648Z,22.33
2022-12-03T01:12:43.199Z,25.17
2022-12-03T01:13:44.728Z,18.83
2022-12-03T01:14:46.681Z,18.50
2022-12-03T01:15:48.271Z,18.65
2022-12-03T01:16:49.824Z,19.27
2022-12-03T01:17:51.337Z,16.60
2022-12-03T01:18:52.898Z,17.73
2022-12-03T01:19:54.464Z,19.10
2022-12-03T01:20:55.975Z,19.67
2022-12-03T01:21:57.505Z,19.00
2022-12-03T01:22:59.138Z,19.25
2022-12-03T01:24:00.864Z,19.73
2022-12-03T01:25:03.231Z,19.58
2022-12-03T01:26:05.018Z,21.50
2022-12-03T01:27:07.875Z,20.75
2022-12-03T01:28:09.453Z,20.95
2022-12-03T01:29:11.036Z,20.05
2022-12-03T01:30:13.533Z,20.80
2022-12-03T01:31:15.167Z,20.42
2022-12-03T01:32:16.777Z,20.80
2022-12-03T01:33:18.283Z,22.40
2022-12-03T01:34:19.902Z,19.65
2022-12-03T01:35:21.456Z,20.95
2022-12-03T01:36:23.073Z,21.60
2022-12-03T01:37:26.403Z,21.58
2022-12-03T01:38:27.886Z,19.27
2022-12-03T01:39:29.592Z,19.83
2022-12-03T01:40:31.164Z,21.00
2022-12-03T01:41:33.922Z,19.60
2022-12-03T01:42:40.812Z,21.33
2022-12-03T01:43:42.923Z,19.33
2022-12-03T01:44:45.434Z,21.10
2022-12-03T01:45:47.039Z,21.83
2022-12-03T01:46:49.744Z,22.27
2022-12-03T01:47:51.499Z,21.63
2022-12-03T01:48:55.816Z,20.55
2022-12-03T01:50:01.681Z,23.00
2022-12-03T01:51:03.633Z,20.83
2022-12-03T01:52:05.809Z,20.67
2022-12-03T01:53:12.335Z,21.40
2022-12-03T01:54:17.375Z,22.02
2022-12-03T01:55:22.234Z,21.50
2022-12-03T01:56:24.325Z,21.42
2022-12-03T01:57:27.982Z,21.42
2022-12-03T01:58:31.206Z,20.92
2022-12-03T01:59:35.567Z,20.80
2022-12-03T02:00:37.110Z,20.88
2022-12-03T02:01:38.639Z,21.85
2022-12-03T02:02:40.428Z,21.77
2022-12-03T02:03:42.378Z,22.10
2022-12-03T02:04:44.250Z,21.75
2022-12-03T02:05:45.784Z,21.23
2022-12-03T02:06:47.322Z,22.20
2022-12-03T02:07:49.420Z,20.55
2022-12-03T02:08:51.029Z,23.48
2022-12-03T02:09:53.697Z,21.35
2022-12-03T02:10:56.424Z,22.20
2022-12-03T02:11:57.930Z,22.15
2022-12-03T02:13:02.760Z,21.38
2022-12-03T02:14:08.855Z,21.10
2022-12-03T02:15:11.328Z,21.25
2022-12-03T02:16:12.899Z,22.27
2022-12-03T02:17:14.609Z,18.30
2022-12-03T02:18:16.322Z,21.83
2022-12-03T02:19:24.349Z,19.80
2022-12-03T02:20:25.947Z,19.75
2022-12-03T02:21:34.848Z,20.10
2022-12-03T02:22:55.028Z,19.23
2022-12-03T02:24:01.731Z,19.67
2022-12-03T02:25:19.629Z,19.33
2022-12-03T02:26:21.298Z,19.33
2022-12-03T02:27:23.331Z,18.95
2022-12-03T02:28:25.012Z,18.38
2022-12-03T02:29:26.533Z,18.75
2022-12-03T02:30:29.821Z,16.98
2022-12-03T02:31:31.734Z,17.58
2022-12-03T02:32:33.586Z,14.98
2022-12-03T02:33:35.251Z,14.13
2022-12-03T02:34:39.077Z,16.00
2022-12-03T02:35:40.782Z,16.67
2022-12-03T02:36:42.364Z,18.38
2022-12-03T02:37:45.839Z,16.50
2022-12-03T02:38:49.283Z,18.17
2022-12-03T02:39:54.619Z,17.88
2022-12-03T02:41:02.080Z,18.52
2022-12-03T02:42:05.179Z,18.23
2022-12-03T02:43:06.758Z,19.60
2022-12-03T02:44:09.362Z,20.40
2022-12-03T02:45:15.010Z,19.63
2022-12-03T02:46:16.569Z,21.60
2022-12-03T02:47:35.293Z,20.23
2022-12-03T02:48:39.844Z,20.30
2022-12-03T02:49:41.767Z,21.65
2022-12-03T02:50:48.106Z,21.33
2022-12-03T02:51:49.665Z,21.52
2022-12-03T02:52:54.653Z,22.05
2022-12-03T02:53:57.084Z,22.48
2022-12-03T02:54:59.280Z,20.85
2022-12-03T02:56:03.676Z,22.13
2022-12-03T02:57:05.660Z,22.98
2022-12-03T02:58:07.240Z,20.80
2022-12-03T02:59:08.875Z,22.58
2022-12-03T03:00:45.358Z,23.17
2022-12-03T03:01:47.093Z,20.65
2022-12-03T03:02:49.126Z,22.73
2022-12-03T03:03:51.872Z,21.73
2022-12-03T03:04:53.760Z,21.20
2022-12-03T03:05:56.814Z,18.65
2022-12-03T03:06:58.787Z,17.25
2022-12-03T03:08:01.215Z,18.52
2022-12-03T03:09:03.412Z,20.17
2022-12-03T03:10:07.143Z,20.45
2022-12-03T03:11:10.955Z,20.23
2022-12-03T03:12:12.492Z,20.80
2022-12-03T03:13:17.743Z,20.75
2022-12-03T03:14:19.374Z,21.52
2022-12-03T03:15:21.964Z,19.83
2022-12-03T03:16:23.590Z,20.58
2022-12-03T03:17:25.206Z,19.67
2022-12-03T03:18:26.763Z,18.77
2022-12-03T03:19:29.138Z,19.17
2022-12-03T03:20:30.690Z,19.23
2022-12-03T03:21:32.233Z,20.40
2022-12-03T03:22:34.874Z,19.85
2022-12-03T03:23:36.389Z,21.05
2022-12-03T03:24:38.175Z,17.92
2022-12-03T03:25:42.514Z,19.58
2022-12-03T03:26:45.682Z,20.15
2022-12-03T03:27:47.433Z,17.35
2022-12-03T03:28:51.084Z,19.05
2022-12-03T03:29:52.768Z,20.83
2022-12-03T03:30:54.684Z,19.92
2022-12-03T03:31:57.139Z,20.08
2022-12-03T03:32:58.757Z,20.90
2022-12-03T03:34:00.496Z,22.20
2022-12-03T03:35:02.739Z,21.38
2022-12-03T03:36:05.237Z,21.00
2022-12-03T03:37:06.824Z,22.52
2022-12-03T03:38:09.602Z,21.33
2022-12-03T03:39:11.664Z,21.33
2022-12-03T03:40:13.349Z,21.83
2022-12-03T03:41:16.228Z,21.73
2022-12-03T03:42:19.264Z,19.75
2022-12-03T03:43:22.293Z,21.98
2022-12-03T03:44:23.883Z,20.38
2022-12-03T03:45:28.981Z,22.02
2022-12-03T03:46:31.670Z,23.33
2022-12-03T03:47:33.428Z,22.08
2022-12-03T03:48:35.531Z,22.13
2022-12-03T03:49:37.215Z,22.10
2022-12-03T03:50:38.970Z,22.73
2022-12-03T03:51:40.901Z,22.25
2022-12-03T03:52:43.146Z,21.63
2022-12-03T03:53:47.391Z,22.25
2022-12-03T03:54:49.212Z,23.63
2022-12-03T03:55:51.131Z,22.95
2022-12-03T03:56:52.830Z,21.98
2022-12-03T03:57:55.814Z,21.50
2022-12-03T03:58:57.622Z,23.92
2022-12-03T03:59:59.793Z,21.70
2022-12-03T04:01:01.664Z,25.05
2022-12-03T04:02:05.948Z,24.48
2022-12-03T04:03:07.480Z,23.63
2022-12-03T04:04:26.274Z,22.20
2022-12-03T04:05:28.118Z,24.85
2022-12-03T04:06:29.645Z,23.77
2022-12-03T04:07:31.242Z,21.90
2022-12-03T04:08:32.826Z,23.60
2022-12-03T04:09:34.401Z,23.80
2022-12-03T04:10:35.936Z,23.98
2022-12-03T04:11:37.483Z,22.88
2022-12-03T04:12:38.999Z,23.75
2022-12-03T04:13:41.859Z,23.75
2022-12-03T04:14:43.384Z,22.45
2022-12-03T04:15:44.915Z,21.48
2022-12-03T04:16:46.492Z,23.58
2022-12-03T04:17:48.190Z,22.58
2022-12-03T04:18:49.725Z,24.35
2022-12-03T04:19:51.285Z,22.90
2022-12-03T04:20:52.807Z,22.98
2022-12-03T04:21:54.316Z,22.60
2022-12-03T04:22:55.837Z,20.73
2022-12-03T04:23:57.404Z,21.52
2022-12-03T04:24:58.986Z,23.98
2022-12-03T04:26:00.514Z,21.15
2022-12-03T04:27:01.998Z,21.65
2022-12-03T04:28:03.566Z,20.42
2022-12-03T04:29:06.531Z,22.10
2022-12-03T04:30:09.212Z,23.13
2022-12-03T04:31:10.835Z,23.23
2022-12-03T04:32:12.363Z,22.65
2022-12-03T04:33:32.512Z,22.02
2022-12-03T04:34:34.080Z,20.85
2022-12-03T04:35:35.676Z,22.17
2022-12-03T04:36:37.644Z,22.63
2022-12-03T04:37:39.186Z,22.10
2022-12-03T04:38:40.694Z,22.38
2022-12-03T04:39:42.243Z,23.80
2022-12-03T04:40:43.751Z,22.05
2022-12-03T04:41:45.356Z,22.77
2022-12-03T04:42:46.859Z,23.58
2022-12-03T04:43:48.462Z,24.25
2022-12-03T04:44:51.811Z,23.88
2022-12-03T04:45:53.749Z,23.50
2022-12-03T04:46:55.274Z,26.92
2022-12-03T04:47:56.778Z,23.15
2022-12-03T04:48:58.319Z,19.73
2022-12-03T04:49:59.861Z,26.92
2022-12-03T04:51:01.374Z,23.67
2022-12-03T04:52:03.041Z,23.08
2022-12-03T04:53:04.530Z,25.05
2022-12-03T04:54:06.092Z,22.08
2022-12-03T04:55:08.483Z,21.88
2022-12-03T04:56:10.024Z,21.58
2022-12-03T04:57:26.931Z,22.63
2022-12-03T04:58:28.482Z,21.65
2022-12-03T04:59:30.150Z,22.30
2022-12-03T05:00:33.024Z,23.95
2022-12-03T05:01:34.662Z,22.80
2022-12-03T05:02:42.192Z,22.30
2022-12-03T05:03:55.750Z,24.40
2022-12-03T05:04:57.251Z,24.42
2022-12-03T05:05:58.747Z,25.90
2022-12-03T05:07:00.347Z,25.90
2022-12-03T05:08:01.907Z,27.08
2022-12-03T05:09:03.887Z,23.85
2022-12-03T05:10:07.046Z,26.75
2022-12-03T05:11:08.590Z,23.60
2022-12-03T05:12:10.099Z,23.85
2022-12-03T05:13:11.589Z,24.70
2022-12-03T05:14:13.347Z,36.05
2022-12-03T05:15:15.048Z,31.88
2022-12-03T05:16:18.020Z,35.03
2022-12-03T05:17:19.611Z,26.70
2022-12-03T05:18:21.166Z,29.17
2022-12-03T05:19:22.712Z,30.17
2022-12-03T05:20:24.203Z,38.17
2022-12-03T05:21:25.754Z,37.10
2022-12-03T05:22:27.329Z,34.42
2022-12-03T05:23:28.893Z,37.55
2022-12-03T05:24:30.379Z,37.35
2022-12-03T05:25:31.908Z,34.78
2022-12-03T05:26:33.465Z,27.73
2022-12-03T05:27:35.041Z,26.42
2022-12-03T05:28:36.556Z,25.23
2022-12-03T05:29:38.094Z,25.75
2022-12-03T05:30:39.693Z,29.48
2022-12-03T05:31:42.556Z,26.15
2022-12-03T05:32:44.090Z,29.00
2022-12-03T05:33:45.662Z,26.27
2022-12-03T05:34:47.255Z,27.23
2022-12-03T05:35:48.795Z,31.33
2022-12-03T05:37:02.623Z,24.98
2022-12-03T05:38:04.147Z,24.33
2022-12-03T05:39:05.666Z,28.33
2022-12-03T05:40:08.411Z,25.83
2022-12-03T05:41:09.949Z,23.92
2022-12-03T05:42:11.943Z,24.35
2022-12-03T05:43:13.445Z,23.65
2022-12-03T05:44:20.133Z,25.67
2022-12-03T05:45:22.662Z,23.80
2022-12-03T05:46:24.303Z,24.17
2022-12-03T05:47:27.206Z,21.10
2022-12-03T05:48:28.733Z,21.35
2022-12-03T05:49:30.283Z,19.17
2022-12-03T05:50:38.885Z,20.58
2022-12-03T05:51:40.439Z,21.85
2022-12-03T05:52:42.090Z,18.92
2022-12-03T05:53:43.622Z,18.75
2022-12-03T05:54:57.505Z,19.35
2022-12-03T05:55:59.020Z,19.88
2022-12-03T05:57:00.587Z,28.10
2022-12-03T05:58:02.381Z,20.35
2022-12-03T05:59:03.927Z,19.25
2022-12-03T06:00:08.604Z,23.08
2022-12-03T06:01:10.138Z,18.75
2022-12-03T06:02:11.901Z,18.83
2022-12-03T06:03:15.056Z,21.02
2022-12-03T06:04:16.655Z,17.67
2022-12-03T06:05:18.942Z,14.73
2022-12-03T06:06:23.249Z,16.08
2022-12-03T06:07:24.849Z,16.75
2022-12-03T06:08:26.428Z,15.82
2022-12-03T06:09:27.974Z,15.57
2022-12-03T06:10:29.773Z,17.42
2022-12-03T06:11:31.449Z,17.15
2022-12-03T06:12:33.046Z,18.00
2022-12-03T06:13:34.526Z,18.95
2022-12-03T06:14:36.041Z,21.83
2022-12-03T06:15:43.332Z,23.00
2022-12-03T06:16:45.457Z,17.60
2022-12-03T06:17:47.270Z,29.67
2022-12-03T06:18:50.115Z,24.35
2022-12-03T06:19:51.883Z,25.45
2022-12-03T06:20:53.426Z,24.65
2022-12-03T06:21:54.979Z,24.38
2022-12-03T06:22:56.492Z,33.65
2022-12-03T06:23:57.988Z,21.90
2022-12-03T06:25:03.585Z,23.85
2022-12-03T06:26:07.808Z,28.70
2022-12-03T06:27:09.321Z,16.40
2022-12-03T06:28:10.871Z,35.33
2022-12-03T06:29:12.376Z,24.25
2022-12-03T06:30:14.272Z,21.90
2022-12-03T06:31:16.042Z,20.98
2022-12-03T06:32:17.600Z,19.10
2022-12-03T06:33:19.146Z,25.00
2022-12-03T06:34:22.062Z,23.77
2022-12-03T06:35:23.554Z,23.17
2022-12-03T06:36:25.092Z,25.23
2022-12-03T06:37:26.570Z,23.67
2022-12-03T06:38:28.079Z,22.23
2022-12-03T06:39:29.690Z,23.92
2022-12-03T06:40:31.250Z,19.38
2022-12-03T06:41:32.767Z,19.55
2022-12-03T06:42:34.290Z,24.17
2022-12-03T06:43:35.823Z,23.85
2022-12-03T06:44:37.386Z,24.48
2022-12-03T06:45:42.124Z,22.20
2022-12-03T06:46:47.818Z,20.52
2022-12-03T06:47:49.375Z,22.10
2022-12-03T06:48:50.864Z,24.80
2022-12-03T06:49:53.708Z,25.48
2022-12-03T06:54:48.602Z,24.77
2022-12-03T06:55:50.121Z,36.22
2022-12-03T06:56:51.639Z,26.48
2022-12-03T06:57:53.158Z,27.05
2022-12-03T06:58:54.733Z,30.08
2022-12-03T06:59:56.578Z,39.22
2022-12-03T07:00:58.175Z,27.00
2022-12-03T07:01:59.890Z,30.80
2022-12-03T07:03:01.586Z,32.90
2022-12-03T07:04:03.158Z,30.02
2022-12-03T07:05:07.335Z,30.05
2022-12-03T07:06:08.839Z,28.67
2022-12-03T07:07:10.377Z,38.03
2022-12-03T07:08:11.993Z,42.53
2022-12-03T07:09:13.538Z,36.53
2022-12-03T07:10:23.921Z,40.28
2022-12-03T07:11:25.460Z,33.28
2022-12-03T07:12:27.029Z,38.65
2022-12-03T07:13:28.586Z,33.72
2022-12-03T07:14:30.093Z,24.92
2022-12-03T07:15:31.627Z,21.83
2022-12-03T07:16:33.728Z,23.95
2022-12-03T07:17:35.368Z,22.42
2022-12-03T07:18:36.887Z,22.90
2022-12-03T07:19:38.659Z,34.15
2022-12-03T07:20:41.542Z,40.05
2022-12-03T07:21:43.066Z,34.05
2022-12-03T07:22:44.575Z,27.75
2022-12-03T07:23:46.087Z,37.95
2022-12-03T07:24:47.656Z,46.70
2022-12-03T07:25:54.962Z,41.70
2022-12-03T07:26:56.464Z,25.38
2022-12-03T07:27:58.000Z,50.45
2022-12-03T07:28:59.559Z,34.10
2022-12-03T07:30:01.089Z,42.38
2022-12-03T07:31:02.757Z,33.60
2022-12-03T07:32:04.790Z,23.95
2022-12-03T07:33:06.345Z,37.53
2022-12-03T07:34:07.873Z,34.35
2022-12-03T07:35:10.046Z,38.10
2022-12-03T07:36:12.891Z,49.22
2022-12-03T07:37:17.512Z,29.80
2022-12-03T07:38:21.541Z,26.90
2022-12-03T07:39:23.065Z,46.78
2022-12-03T07:40:24.571Z,34.42
2022-12-03T07:41:26.090Z,35.10
2022-12-03T07:42:27.706Z,39.00
2022-12-03T07:43:29.254Z,25.20
2022-12-03T07:44:30.808Z,27.23
2022-12-03T07:45:32.337Z,33.45
2022-12-03T07:46:33.948Z,30.13
2022-12-03T07:47:35.495Z,29.55
2022-12-03T07:48:37.004Z,29.02
2022-12-03T07:49:38.505Z,32.15
2022-12-03T07:50:40.029Z,26.27
2022-12-03T07:51:45.786Z,25.23
2022-12-03T07:52:47.336Z,25.75
2022-12-03T07:53:48.902Z,35.67
2022-12-03T07:54:50.508Z,28.63
2022-12-03T07:55:52.076Z,33.25
2022-12-03T07:56:58.109Z,42.80
2022-12-03T07:58:02.933Z,36.30
2022-12-03T07:59:04.467Z,46.22
2022-12-03T08:00:07.541Z,24.13
2022-12-03T08:01:09.139Z,35.50
2022-12-03T08:02:10.772Z,39.45
2022-12-03T08:03:12.320Z,43.53
2022-12-03T08:04:13.844Z,36.85
2022-12-03T08:05:15.566Z,33.75
2022-12-03T08:06:26.233Z,51.47
2022-12-03T08:07:34.933Z,42.88
2022-12-03T08:08:36.501Z,51.75
2022-12-03T08:09:40.644Z,41.28
2022-12-03T08:10:42.215Z,58.40
2022-12-03T08:11:45.287Z,43.53
2022-12-03T08:12:47.041Z,38.53
2022-12-03T08:13:48.688Z,47.30
2022-12-03T08:14:50.366Z,40.00
2022-12-03T08:15:52.049Z,43.05
2022-12-03T08:16:53.602Z,45.72
2022-12-03T08:18:11.496Z,49.83
2022-12-03T08:19:14.629Z,29.33
2022-12-03T08:22:46.773Z,32.13
2022-12-03T08:23:48.468Z,35.05
2022-12-03T08:24:50.016Z,28.90
2022-12-03T08:25:52.880Z,49.30
2022-12-03T08:26:57.069Z,36.40
2022-12-03T08:28:07.293Z,45.63
2022-12-03T08:29:10.346Z,46.53
2022-12-03T08:30:14.309Z,33.65
2022-12-03T08:31:18.964Z,34.20
2022-12-03T08:32:20.642Z,31.88
2022-12-03T08:33:27.086Z,31.80
2022-12-03T08:34:36.649Z,39.65
2022-12-03T08:35:38.147Z,40.38
2022-12-03T08:36:39.697Z,28.88
2022-12-03T08:37:58.381Z,27.90
2022-12-03T08:39:05.278Z,47.22
2022-12-03T08:40:21.051Z,38.65
2022-12-03T08:41:23.977Z,31.45
2022-12-03T08:42:26.750Z,40.25
2022-12-03T08:43:37.221Z,31.38
2022-12-03T08:44:39.149Z,40.77
2022-12-03T08:45:42.068Z,46.78
2022-12-03T08:46:44.232Z,28.73
2022-12-03T08:47:46.072Z,49.63
2022-12-03T08:48:56.429Z,51.55
2022-12-03T08:50:26.198Z,48.88
2022-12-03T08:51:27.737Z,33.67
2022-12-03T08:52:31.593Z,31.40
2022-12-03T08:53:41.015Z,33.17
2022-12-03T08:54:43.022Z,53.92
2022-12-03T08:55:46.637Z,38.70
2022-12-03T08:56:48.146Z,27.67
2022-12-03T08:57:49.669Z,29.15
2022-12-03T09:00:59.287Z,34.83
2022-12-03T09:02:00.855Z,30.08
2022-12-03T09:03:02.799Z,31.90
2022-12-03T09:04:22.176Z,44.72
2022-12-03T09:05:28.095Z,47.08
2022-12-03T09:06:29.683Z,41.70
2022-12-03T09:07:49.736Z,42.95
2022-12-03T09:08:52.685Z,31.38
2022-12-03T09:09:54.207Z,34.13
2022-12-03T09:10:55.806Z,38.85
2022-12-03T09:11:57.396Z,36.70
2022-12-03T09:12:58.939Z,32.15
2022-12-03T09:14:00.528Z,34.58
2022-12-03T09:15:02.043Z,45.75
2022-12-03T09:16:03.836Z,30.33
2022-12-03T09:17:05.466Z,33.28
2022-12-03T09:18:07.957Z,29.67
2022-12-03T09:19:09.622Z,24.75
2022-12-03T09:20:16.496Z,24.35
2022-12-03T09:21:17.976Z,26.05
2022-12-03T09:22:19.554Z,25.30
2022-12-03T09:23:21.065Z,32.45
2022-12-03T09:24:23.942Z,29.02
2022-12-03T09:25:25.523Z,28.17
2022-12-03T09:26:27.063Z,22.38
2022-12-03T09:27:28.551Z,37.15
2022-12-03T09:28:30.048Z,39.25
2022-12-03T09:29:31.560Z,23.85
2022-12-03T09:30:33.203Z,28.08
2022-12-03T09:31:34.742Z,35.67
2022-12-03T09:32:36.340Z,23.20
2022-12-03T09:33:37.835Z,32.35
2022-12-03T09:34:39.368Z,41.95
2022-12-03T09:35:40.910Z,36.20
2022-12-03T09:36:42.417Z,28.60
2022-12-03T09:37:43.997Z,36.65
2022-12-03T09:38:47.913Z,34.42
2022-12-03T09:39:51.217Z,21.52
2022-12-03T09:41:08.761Z,23.30
2022-12-03T09:42:10.823Z,21.42
2022-12-03T09:43:13.324Z,14.40
2022-12-03T09:44:17.985Z,17.25
2022-12-03T09:45:19.976Z,17.75
2022-12-03T09:46:22.786Z,23.70
2022-12-03T09:47:24.633Z,21.45
2022-12-03T09:48:26.403Z,24.60
2022-12-03T09:49:30.271Z,27.55
2022-12-03T09:50:32.043Z,27.10
2022-12-03T09:51:36.048Z,20.63
2022-12-03T09:52:37.588Z,23.05
2022-12-03T09:53:41.309Z,31.40
2022-12-03T09:54:47.255Z,22.73
2022-12-03T09:55:50.621Z,32.05
2022-12-03T09:56:53.279Z,24.65
2022-12-03T09:57:56.269Z,29.83
2022-12-03T09:58:57.915Z,24.13
2022-12-03T09:59:59.539Z,26.92
2022-12-03T10:01:01.131Z,22.13
2022-12-03T10:02:03.642Z,39.38
2022-12-03T10:03:06.890Z,38.22
2022-12-03T10:04:08.733Z,27.02
2022-12-03T10:05:10.462Z,44.25
2022-12-03T10:06:17.137Z,28.75
2022-12-03T10:07:37.555Z,41.17
2022-12-03T10:08:39.127Z,31.27
2022-12-03T10:09:41.127Z,31.42
2022-12-03T10:10:42.817Z,37.25
2022-12-03T10:11:45.671Z,33.65
2022-12-03T10:12:47.474Z,43.17
2022-12-03T10:14:01.504Z,45.78
2022-12-03T10:15:03.733Z,32.55
2022-12-03T10:16:08.957Z,34.00
2022-12-03T10:17:11.824Z,29.52
2022-12-03T10:18:17.902Z,30.05
2022-12-03T10:19:24.017Z,35.72
2022-12-03T10:20:26.330Z,24.88
2022-12-03T10:21:30.642Z,26.17
2022-12-03T10:22:32.122Z,37.58
2022-12-03T10:23:33.665Z,28.88
2022-12-03T10:24:36.576Z,35.78
2022-12-03T10:25:50.611Z,42.92
2022-12-03T10:26:56.830Z,31.83
2022-12-03T10:27:59.848Z,32.25
2022-12-03T10:29:01.419Z,28.58
2022-12-03T10:30:13.906Z,32.25
2022-12-03T10:31:15.545Z,38.67
2022-12-03T10:32:17.164Z,34.22
2022-12-03T10:33:19.308Z,42.58
2022-12-03T10:34:25.136Z,37.38
2022-12-03T10:35:40.293Z,38.50
2022-12-03T10:36:41.837Z,26.50
2022-12-03T10:37:57.620Z,28.77
2022-12-03T10:39:08.021Z,33.53
2022-12-03T10:40:11.372Z,29.30
2022-12-03T10:41:24.556Z,32.17
2022-12-03T10:42:29.468Z,42.47
2022-12-03T10:43:30.999Z,57.15
2022-12-03T10:44:32.567Z,33.10
2022-12-03T10:45:34.088Z,40.38
2022-12-03T10:46:35.669Z,14.05
2022-12-03T10:47:37.376Z,27.27
2022-12-03T10:48:39.049Z,31.60
2022-12-03T10:49:41.730Z,31.33
2022-12-03T10:50:48.643Z,28.65
2022-12-03T10:51:50.174Z,27.30
2022-12-03T10:52:51.743Z,29.00
2022-12-03T10:53:53.325Z,31.65
2022-12-03T10:54:55.297Z,23.00
2022-12-03T10:56:00.094Z,20.85
2022-12-03T10:57:02.040Z,19.35
2022-12-03T10:58:04.993Z,27.52
2022-12-03T10:59:08.970Z,22.02
2022-12-03T11:00:15.997Z,21.77
2022-12-03T11:01:19.196Z,20.85
2022-12-03T11:02:23.184Z,20.98
2022-12-03T11:03:26.465Z,21.42
2022-12-03T11:04:31.461Z,26.88
2022-12-03T11:05:33.738Z,21.38
2022-12-03T11:06:35.395Z,31.83
2022-12-03T11:07:39.125Z,33.83
2022-12-03T11:08:43.391Z,29.60
2022-12-03T11:09:47.195Z,24.63
2022-12-03T11:10:57.218Z,21.00
2022-12-03T11:12:04.418Z,23.98
2022-12-03T11:13:44.665Z,35.70
2022-12-03T11:14:59.815Z,28.20
2022-12-03T11:16:03.291Z,24.90
2022-12-03T11:17:06.993Z,22.80
2022-12-03T11:18:08.596Z,39.08
2022-12-03T11:19:15.107Z,31.20
2022-12-03T11:21:05.437Z,38.85
2022-12-03T11:22:43.829Z,24.05
2022-12-03T11:24:15.659Z,24.58
2022-12-03T11:25:47.362Z,20.80
2022-12-03T11:27:17.163Z,24.13
2022-12-03T11:28:52.185Z,18.48
2022-12-03T11:29:57.052Z,21.85
2022-12-03T11:31:01.031Z,26.70
2022-12-03T11:32:11.273Z,17.40
2022-12-03T11:33:23.498Z,25.15
2022-12-03T11:34:48.693Z,29.27
2022-12-03T11:36:14.667Z,53.72
2022-12-03T11:37:26.885Z,26.85
2022-12-03T11:38:55.920Z,22.65
2022-12-03T11:40:26.968Z,40.10
2022-12-03T11:41:31.424Z,40.43
2022-12-03T11:42:43.401Z,30.83
2022-12-03T11:44:18.742Z,44.25
2022-12-03T11:45:30.867Z,32.42
2022-12-03T11:46:42.119Z,55.35
2022-12-03T11:47:47.432Z,40.53
2022-12-03T11:48:51.626Z,46.88
2022-12-03T11:49:53.488Z,36.55
2022-12-03T11:50:55.602Z,21.80
2022-12-03T11:51:59.911Z,33.55
2022-12-03T11:53:08.184Z,33.63
2022-12-03T11:54:15.785Z,19.60
2022-12-03T11:55:24.683Z,27.75
2022-12-03T11:56:29.963Z,24.08
2022-12-03T11:57:37.106Z,17.42
2022-12-03T11:58:42.229Z,22.67
2022-12-03T11:59:57.419Z,18.10
2022-12-03T12:01:02.534Z,20.75
2022-12-03T12:02:19.729Z,25.02
2022-12-03T12:03:23.969Z,27.08
2022-12-03T12:04:33.964Z,23.13
2022-12-03T12:05:35.720Z,21.60
2022-12-03T12:06:42.423Z,28.30
2022-12-03T12:07:44.324Z,20.65
2022-12-03T12:08:56.165Z,30.92
2022-12-03T12:09:58.029Z,29.10
2022-12-03T12:11:00.251Z,28.13
2022-12-03T12:12:21.250Z,44.08
2022-12-03T12:13:51.247Z,26.98
2022-12-03T12:14:52.791Z,37.70
2022-12-03T12:15:54.571Z,13.25
2022-12-03T12:16:57.453Z,18.05
2022-12-03T12:18:38.907Z,45.35
2022-12-03T12:19:41.758Z,41.70
2022-12-03T12:20:43.360Z,31.60
2022-12-03T12:21:47.191Z,38.00
2022-12-03T12:22:48.757Z,35.05
2022-12-03T12:23:50.268Z,37.88
2022-12-03T12:24:53.477Z,25.25
2022-12-03T12:26:06.060Z,39.05
2022-12-03T12:27:09.558Z,42.40
2022-12-03T12:28:11.072Z,44.10
2022-12-03T12:29:12.590Z,46.60
2022-12-03T12:30:15.914Z,35.72
2022-12-03T12:31:17.511Z,7.78
2022-12-03T12:32:27.067Z,39.60
2022-12-03T12:33:28.602Z,22.38
2022-12-03T12:34:31.474Z,24.13
2022-12-03T12:35:33.135Z,25.60
2022-12-03T12:36:34.794Z,32.20
2022-12-03T12:37:47.349Z,40.97
2022-12-03T12:38:50.171Z,42.00
2022-12-03T12:39:56.235Z,43.20
2022-12-03T12:41:22.689Z,40.00
2022-12-03T12:44:57.893Z,16.27
2022-12-03T12:47:24.966Z,36.25
2022-12-03T12:48:28.319Z,26.13
2022-12-03T12:49:29.842Z,23.33
2022-12-03T12:50:51.311Z,45.45
2022-12-03T12:51:55.398Z,39.08
2022-12-03T12:53:01.251Z,32.38
2022-12-03T12:54:03.249Z,37.60
2022-12-03T12:55:09.560Z,40.70
2022-12-03T12:56:20.235Z,24.65
2022-12-03T12:57:23.661Z,29.05
2022-12-03T12:58:33.088Z,25.80
2022-12-03T12:59:34.635Z,22.30
2022-12-03T13:00:36.211Z,19.73
2022-12-03T13:01:38.753Z,34.42
2022-12-03T13:02:45.067Z,32.95
2022-12-03T13:03:50.638Z,35.78
2022-12-03T13:04:52.579Z,35.78
2022-12-03T13:06:15.925Z,29.55
2022-12-03T13:07:17.610Z,29.98
2022-12-03T13:08:25.152Z,29.50
2022-12-03T13:09:27.128Z,39.58
2022-12-03T13:10:38.682Z,35.53
2022-12-03T13:11:41.951Z,31.58
2022-12-03T13:12:44.473Z,35.65
2022-12-03T13:13:46.030Z,18.20
2022-12-03T13:14:47.899Z,27.10
2022-12-03T13:15:53.324Z,40.08
2022-12-03T13:16:58.860Z,26.58
2022-12-03T13:18:10.532Z,32.85
2022-12-03T13:19:22.938Z,51.72
2022-12-03T13:20:24.765Z,47.63
2022-12-03T13:21:36.462Z,36.13
2022-12-03T13:22:37.982Z,36.88
2022-12-03T13:23:40.217Z,28.80
2022-12-03T13:24:45.229Z,30.52
2022-12-03T13:26:13.165Z,35.08
2022-12-03T13:27:22.489Z,42.17
2022-12-03T13:28:24.214Z,33.67
2022-12-03T13:29:27.293Z,33.63
2022-12-03T13:30:28.768Z,35.53
2022-12-03T13:31:34.601Z,27.08
2022-12-03T13:32:38.303Z,25.05
2022-12-03T13:33:42.404Z,16.83
2022-12-03T13:34:44.187Z,28.63
2022-12-03T13:35:45.702Z,33.00
2022-12-03T13:36:53.535Z,33.25
2022-12-03T13:37:59.074Z,38.65
2022-12-03T13:39:01.034Z,25.52
2022-12-03T13:40:12.974Z,32.30
2022-12-03T13:41:18.594Z,38.30
2022-12-03T13:42:22.093Z,32.03
2022-12-03T13:43:23.680Z,17.77
2022-12-03T13:44:26.632Z,30.45
2022-12-03T13:45:35.243Z,24.90
2022-12-03T13:46:36.824Z,33.08
2022-12-03T13:47:38.379Z,23.08
2022-12-03T13:48:41.224Z,23.23
2022-12-03T13:49:47.775Z,24.67
2022-12-03T13:50:50.002Z,41.10
2022-12-03T13:51:51.719Z,37.55
2022-12-03T13:52:53.450Z,50.60
2022-12-03T13:53:55.307Z,40.85
2022-12-03T13:54:57.101Z,40.38
2022-12-03T13:56:15.474Z,45.20
2022-12-03T13:57:17.103Z,44.70
2022-12-03T13:58:18.701Z,57.80